Elk, Pennsylvania
Current Conditions -  °F | °C
As of 4:35 PM on Wednesday 17 Dec 2014 (Local Time) from KN38 Reporting Station
Overcast Overcast  
Wind Chill: 22°   Ceiling: 3400
Heat Index: 32°   Visibility: 10mi
Dew Point: 25°   Wind: 15mph
Humidity: 75%   Direction: 260°W
Pressure: 29.92"   Gusts: 22mph
Location:  41.6649°N, 77.5403°W
Report Text: KN38 172135Z AUTO 26013G19KT 240V300 10SM FEW023 SCT027 OVC034 00/M04 A2992 RMK AO2
Loading
Personal Weather Stations






























Interactive Weather Map New forecast layout! Learn more

10-Day Weather Forecast

Advertisements
Track Severe Weather on mobile